Time;durP1;ratioP1;P1;durP2;ratioP2;P2;SDS_P1;SDS_P2;PMS_P1;PMS_P2;Temp;Humidity;BMP_temperature;BMP_pressure;BME280_temperature;BME280_humidity;BME280_pressure;Samples;Min_cycle;Max_cycle;Signal;HPM_P1;HPM_P2
2023/05/31 00:01:08;;;;;;;9.97;2.63;;;;;;;15.57;87.33;100660.97;5011888;28;20226;-81
2023/05/31 00:03:35;;;;;;;4.97;2.40;;;;;;;15.58;87.54;100665.19;5012248;28;20245;-79
2023/05/31 00:06:00;;;;;;;8.27;2.80;;;;;;;15.49;88.33;100657.13;5011270;28;20179;-81
2023/05/31 00:08:26;;;;;;;7.83;2.80;;;;;;;15.46;88.75;100659.91;5012365;28;20179;-82
2023/05/31 00:10:51;;;;;;;7.43;3.00;;;;;;;15.49;89.06;100654.53;5005122;28;20229;-79
2023/05/31 00:13:16;;;;;;;8.07;2.53;;;;;;;15.53;88.79;100656.91;5022377;28;20322;-80
2023/05/31 00:15:42;;;;;;;11.03;3.57;;;;;;;15.47;89.16;100651.19;5010597;28;20190;-80
2023/05/31 00:18:07;;;;;;;7.90;3.17;;;;;;;15.39;89.82;100648.28;5005011;28;20238;-80
2023/05/31 00:20:32;;;;;;;9.20;2.90;;;;;;;15.35;89.96;100652.00;5004473;28;20225;-80
2023/05/31 00:22:57;;;;;;;8.57;2.63;;;;;;;15.34;90.51;100658.13;5024765;28;20201;-80
2023/05/31 00:25:23;;;;;;;7.50;2.90;;;;;;;15.29;91.10;100657.59;5011400;28;20179;-80
2023/05/31 00:27:48;;;;;;;10.10;3.40;;;;;;;15.27;90.91;100654.25;5011924;28;20660;-80
2023/05/31 00:30:13;;;;;;;8.13;3.23;;;;;;;15.31;90.91;100650.56;4991061;28;20178;-79
2023/05/31 00:32:39;;;;;;;7.27;2.87;;;;;;;15.26;91.64;100648.25;5011572;28;20186;-79
2023/05/31 00:35:04;;;;;;;9.73;3.17;;;;;;;15.24;91.29;100647.53;5012244;28;20598;-81
2023/05/31 00:37:36;;;;;;;7.40;2.97;;;;;;;15.25;91.64;100638.00;5013108;28;20198;-80
2023/05/31 00:40:02;;;;;;;8.20;2.90;;;;;;;15.27;91.52;100641.31;5011231;28;20181;-80
2023/05/31 00:42:27;;;;;;;9.70;2.47;;;;;;;15.29;91.45;100647.22;5017855;28;20234;-81
2023/05/31 00:44:52;;;;;;;8.97;3.23;;;;;;;15.21;92.44;100654.66;5012684;28;20171;-79
2023/05/31 00:47:18;;;;;;;5.93;2.30;;;;;;;15.29;92.13;100660.19;5010983;28;20186;-81
2023/05/31 00:49:43;;;;;;;8.57;2.70;;;;;;;15.17;92.85;100654.06;5012546;28;20522;-79
2023/05/31 00:52:09;;;;;;;8.57;3.40;;;;;;;15.13;92.86;100656.03;5017758;28;20237;-81
2023/05/31 00:54:35;;;;;;;6.93;3.10;;;;;;;15.14;93.13;100649.91;5011369;28;20175;-81
2023/05/31 00:57:01;;;;;;;10.60;3.33;;;;;;;15.13;93.65;100655.16;5012202;28;20262;-80
2023/05/31 00:59:27;;;;;;;9.87;2.80;;;;;;;15.12;93.25;100645.72;5012210;28;20284;-80
2023/05/31 01:01:55;;;;;;;9.30;2.77;;;;;;;15.14;93.38;100644.72;5004446;28;20242;-78
2023/05/31 01:04:21;;;;;;;12.23;3.43;;;;;;;15.09;93.70;100654.53;5010886;28;20269;-81
2023/05/31 01:06:49;;;;;;;9.00;3.50;;;;;;;15.13;93.89;100648.25;5010853;28;20187;-81
2023/05/31 01:09:15;;;;;;;7.43;2.73;;;;;;;15.04;94.44;100641.06;5011266;28;20270;-80
2023/05/31 01:11:57;;;;;;;7.10;2.83;;;;;;;15.03;94.58;100644.56;5004254;28;20811;-80
2023/05/31 01:14:28;;;;;;;8.47;3.10;;;;;;;15.03;94.73;100643.75;5011220;28;20656;-78
2023/05/31 01:17:13;;;;;;;7.33;2.83;;;;;;;15.03;95.20;100638.56;5010326;28;20253;-79
2023/05/31 01:19:48;;;;;;;8.47;3.00;;;;;;;14.98;95.18;100644.88;5012486;28;20240;-80
2023/05/31 01:22:35;;;;;;;12.03;3.00;;;;;;;14.96;95.78;100648.50;5016840;28;20217;-78
2023/05/31 01:25:31;;;;;;;6.33;3.27;;;;;;;14.91;96.17;100643.63;5010030;28;20210;-78
2023/05/31 01:27:59;;;;;;;10.80;3.30;;;;;;;14.89;96.28;100642.88;5010906;28;20256;-77
2023/05/31 01:30:27;;;;;;;6.73;2.70;;;;;;;14.86;96.36;100640.50;4990376;28;20237;-78
2023/05/31 01:32:55;;;;;;;6.73;2.70;;;;;;;14.88;96.89;100645.56;5010993;28;20329;-80
2023/05/31 01:35:21;;;;;;;10.10;3.37;;;;;;;14.85;96.59;100636.25;5010037;28;20183;-79
2023/05/31 01:37:46;;;;;;;9.77;2.90;;;;;;;14.91;96.65;100643.63;5011944;28;20248;-79
2023/05/31 01:40:13;;;;;;;8.37;3.03;;;;;;;14.85;96.87;100647.41;5001665;28;20187;-80
2023/05/31 01:42:39;;;;;;;10.70;3.47;;;;;;;14.77;97.62;100643.66;5025926;28;20270;-81
2023/05/31 01:45:05;;;;;;;6.63;3.20;;;;;;;14.79;97.74;100645.22;5011913;28;20265;-80
2023/05/31 01:47:31;;;;;;;8.80;3.23;;;;;;;14.82;97.43;100639.84;5010566;28;20182;-79
2023/05/31 01:49:57;;;;;;;8.97;3.13;;;;;;;14.79;97.68;100640.03;5011439;28;20551;-77
2023/05/31 01:52:23;;;;;;;5.83;3.20;;;;;;;14.77;97.98;100641.91;4999089;28;20705;-76
2023/05/31 01:54:48;;;;;;;7.10;2.97;;;;;;;14.74;98.49;100636.91;5010584;28;20202;-77
2023/05/31 01:57:15;;;;;;;6.47;2.70;;;;;;;14.73;98.59;100642.19;5011548;28;20186;-78
2023/05/31 01:59:41;;;;;;;5.93;2.67;;;;;;;14.71;98.53;100650.06;5010356;28;20182;-78
2023/05/31 02:02:07;;;;;;;6.67;2.67;;;;;;;14.74;98.06;100642.09;5002790;28;20610;-77
2023/05/31 02:04:32;;;;;;;6.57;3.43;;;;;;;14.75;98.03;100645.50;5014317;28;20175;-79
2023/05/31 02:06:57;;;;;;;8.67;3.17;;;;;;;14.76;98.44;100650.59;5015294;28;20232;-77
2023/05/31 02:09:23;;;;;;;5.83;2.80;;;;;;;14.75;98.01;100654.13;5015777;28;20179;-78
2023/05/31 02:11:49;;;;;;;3.57;2.67;;;;;;;14.75;99.01;100650.69;5019108;28;20324;-78
2023/05/31 02:14:14;;;;;;;6.87;2.93;;;;;;;14.71;99.45;100649.22;5017117;28;20727;-77
2023/05/31 02:16:39;;;;;;;9.67;2.83;;;;;;;14.73;99.68;100648.19;5015348;28;20266;-80
2023/05/31 02:19:05;;;;;;;12.10;3.70;;;;;;;14.67;98.84;100646.84;5015208;28;20207;-79
2023/05/31 02:21:35;;;;;;;10.07;3.17;;;;;;;14.65;99.64;100645.28;5016642;28;20226;-79
2023/05/31 02:24:00;;;;;;;7.30;3.10;;;;;;;14.71;99.61;100650.06;5013857;28;20181;-80
2023/05/31 02:26:26;;;;;;;7.43;3.40;;;;;;;14.62;100.00;100638.47;5014945;28;20179;-79
2023/05/31 02:28:51;;;;;;;11.87;3.27;;;;;;;14.45;100.00;100643.88;5010360;28;20257;-78
2023/05/31 02:31:17;;;;;;;14.00;3.40;;;;;;;14.44;100.00;100642.25;4999217;28;20307;-77
2023/05/31 02:33:42;;;;;;;12.43;3.50;;;;;;;14.48;100.00;100648.88;5020806;28;20634;-78
2023/05/31 02:36:09;;;;;;;6.60;3.00;;;;;;;14.40;100.00;100641.59;5014849;28;20190;-78
2023/05/31 02:38:34;;;;;;;10.17;3.10;;;;;;;14.13;100.00;100659.66;5013795;28;20198;-79
2023/05/31 02:40:59;;;;;;;6.60;3.23;;;;;;;14.31;100.00;100655.94;5007053;28;20342;-79
2023/05/31 02:43:25;;;;;;;6.57;2.53;;;;;;;14.23;100.00;100652.13;5014033;28;20194;-79
2023/05/31 02:45:50;;;;;;;8.40;2.93;;;;;;;14.17;100.00;100651.59;5029622;28;20201;-79
2023/05/31 02:48:15;;;;;;;5.53;3.00;;;;;;;14.22;100.00;100653.09;5014690;28;20248;-78
2023/05/31 02:50:41;;;;;;;6.87;3.30;;;;;;;14.28;100.00;100640.59;5006598;28;20655;-80
2023/05/31 02:53:06;;;;;;;8.57;2.87;;;;;;;14.08;100.00;100643.56;5025102;28;20183;-80
2023/05/31 02:55:32;;;;;;;10.30;3.10;;;;;;;14.17;100.00;100638.66;5014730;28;20642;-79
2023/05/31 02:57:58;;;;;;;10.93;3.33;;;;;;;14.22;100.00;100642.75;5013294;28;20661;-79
2023/05/31 03:00:23;;;;;;;5.97;2.80;;;;;;;14.27;100.00;100643.28;4994590;28;20306;-78
2023/05/31 03:02:49;;;;;;;7.00;2.90;;;;;;;14.16;100.00;100644.75;4999725;28;20178;-78
2023/05/31 03:05:15;;;;;;;5.63;2.70;;;;;;;14.21;100.00;100654.81;5028918;28;20187;-77
2023/05/31 03:07:40;;;;;;;9.53;2.83;;;;;;;14.30;100.00;100641.34;5014491;28;20646;-78
2023/05/31 03:10:07;;;;;;;8.53;2.90;;;;;;;14.22;100.00;100643.56;5005005;28;20189;-79
2023/05/31 03:12:33;;;;;;;8.13;3.10;;;;;;;14.23;100.00;100644.38;5028813;28;20223;-78
2023/05/31 03:14:58;;;;;;;6.83;3.07;;;;;;;14.26;100.00;100644.19;5013066;28;20265;-78
2023/05/31 03:17:24;;;;;;;8.03;2.93;;;;;;;14.29;100.00;100655.19;5003009;28;20226;-78
2023/05/31 03:19:49;;;;;;;9.70;3.00;;;;;;;14.27;100.00;100654.44;5014243;28;20221;-78
2023/05/31 03:22:14;;;;;;;9.30;3.23;;;;;;;14.24;100.00;100657.25;5017486;28;20222;-78
2023/05/31 03:24:40;;;;;;;14.37;2.70;;;;;;;14.29;100.00;100655.19;5006156;28;20264;-78
2023/05/31 03:27:06;;;;;;;8.70;3.60;;;;;;;14.20;100.00;100655.75;5012483;28;20548;-79
2023/05/31 03:29:33;;;;;;;6.43;3.27;;;;;;;14.25;100.00;100652.88;5012981;28;20195;-80
2023/05/31 03:31:58;;;;;;;10.37;3.77;;;;;;;14.22;100.00;100656.50;4982559;28;20353;-80
2023/05/31 03:34:24;;;;;;;9.20;3.57;;;;;;;14.16;100.00;100655.09;5011642;28;20277;-80
2023/05/31 03:36:50;;;;;;;6.03;3.17;;;;;;;14.16;100.00;100652.50;5015320;28;20190;-81
2023/05/31 03:39:16;;;;;;;7.20;3.10;;;;;;;14.26;100.00;100657.13;5013951;28;20195;-79
2023/05/31 03:41:41;;;;;;;8.20;3.00;;;;;;;14.15;100.00;100656.03;5005640;28;20237;-81
2023/05/31 03:44:06;;;;;;;6.60;3.20;;;;;;;14.13;100.00;100660.47;5016520;28;20187;-79
2023/05/31 03:46:32;;;;;;;7.57;3.00;;;;;;;14.10;100.00;100660.66;5012063;28;20191;-79
2023/05/31 03:48:57;;;;;;;7.27;3.43;;;;;;;14.10;100.00;100660.66;5013826;28;20190;-79
2023/05/31 03:51:22;;;;;;;11.93;3.50;;;;;;;14.18;100.00;100661.03;5013852;28;20688;-80
2023/05/31 03:53:48;;;;;;;11.27;3.33;;;;;;;14.22;100.00;100663.44;5012597;28;20187;-79
2023/05/31 03:56:13;;;;;;;8.23;3.50;;;;;;;14.19;100.00;100657.50;5011780;28;20197;-81
2023/05/31 03:58:39;;;;;;;5.20;2.50;;;;;;;14.16;100.00;100665.44;5013772;28;20225;-80
2023/05/31 04:01:06;;;;;;;8.83;2.97;;;;;;;14.15;100.00;100660.38;5005223;28;20674;-79
2023/05/31 04:03:31;;;;;;;10.73;3.40;;;;;;;14.16;100.00;100651.69;5012231;28;20262;-79
2023/05/31 04:05:57;;;;;;;7.07;3.17;;;;;;;14.02;100.00;100658.53;5012884;28;20269;-78
2023/05/31 04:08:22;;;;;;;8.53;3.17;;;;;;;14.23;100.00;100660.75;5012402;28;20248;-78
2023/05/31 04:10:48;;;;;;;11.37;3.50;;;;;;;14.23;100.00;100665.06;5005257;28;20221;-78
2023/05/31 04:13:14;;;;;;;6.00;2.97;;;;;;;14.26;100.00;100670.91;5011896;28;20246;-80
2023/05/31 04:15:39;;;;;;;6.40;3.13;;;;;;;14.31;100.00;100668.03;5012940;28;20604;-81
2023/05/31 04:18:04;;;;;;;8.07;3.00;;;;;;;14.26;100.00;100668.31;5011615;28;20207;-78
2023/05/31 04:20:30;;;;;;;5.90;2.67;;;;;;;14.36;100.00;100673.75;5006706;28;20313;-79
2023/05/31 04:22:55;;;;;;;6.80;3.07;;;;;;;14.40;100.00;100675.25;5025208;28;20294;-78
2023/05/31 04:25:20;;;;;;;9.30;3.40;;;;;;;14.40;100.00;100672.66;5012875;28;20634;-80
2023/05/31 04:27:47;;;;;;;9.60;3.23;;;;;;;14.48;100.00;100670.41;5011561;28;20182;-80
2023/05/31 04:30:12;;;;;;;4.73;2.63;;;;;;;14.59;100.00;100666.34;5017673;28;20294;-78
2023/05/31 04:32:38;;;;;;;6.67;3.23;;;;;;;14.52;100.00;100674.50;5011503;28;20269;-78
2023/05/31 04:35:05;;;;;;;5.30;3.13;;;;;;;14.55;100.00;100670.03;5012653;28;20183;-78
2023/05/31 04:37:30;;;;;;;7.57;3.43;;;;;;;14.56;100.00;100672.50;5011792;28;20202;-80
2023/05/31 04:39:56;;;;;;;6.30;2.60;;;;;;;14.57;100.00;100675.97;5012921;28;20209;-81
2023/05/31 04:42:24;;;;;;;7.33;3.13;;;;;;;14.61;100.00;100672.25;5002264;28;20595;-80
2023/05/31 04:44:51;;;;;;;7.97;2.87;;;;;;;14.76;99.19;100676.50;5011576;28;20210;-81
2023/05/31 04:47:17;;;;;;;7.27;2.83;;;;;;;14.79;100.00;100668.53;5010987;28;20187;-79
2023/05/31 04:49:42;;;;;;;7.67;2.33;;;;;;;14.81;98.91;100671.00;5012825;28;20306;-79
2023/05/31 04:52:09;;;;;;;5.90;3.03;;;;;;;14.91;98.22;100672.09;5017938;28;20305;-79
2023/05/31 04:54:35;;;;;;;6.70;2.90;;;;;;;15.04;97.47;100674.72;5012775;28;20171;-80
2023/05/31 04:57:02;;;;;;;7.00;2.60;;;;;;;15.06;97.34;100672.88;5012297;28;20195;-78
2023/05/31 04:59:27;;;;;;;8.77;3.30;;;;;;;15.22;97.60;100680.50;5012642;28;20432;-78
2023/05/31 05:01:53;;;;;;;7.63;3.00;;;;;;;15.31;96.45;100676.47;5015863;28;20312;-77
2023/05/31 05:04:18;;;;;;;7.07;3.33;;;;;;;15.30;95.73;100678.22;5013600;28;20171;-78
2023/05/31 05:06:43;;;;;;;8.37;3.00;;;;;;;15.40;95.96;100681.03;5010701;28;20205;-80
2023/05/31 05:09:09;;;;;;;9.03;3.93;;;;;;;15.42;94.68;100678.38;5010732;28;20185;-79
2023/05/31 05:11:34;;;;;;;8.40;2.90;;;;;;;15.50;95.72;100689.06;5013952;28;20284;-79
2023/05/31 05:13:59;;;;;;;8.90;3.17;;;;;;;15.51;94.97;100689.91;5015441;28;20187;-77
2023/05/31 05:16:25;;;;;;;7.43;2.90;;;;;;;15.49;95.41;100675.28;5011651;28;20179;-78
2023/05/31 05:18:50;;;;;;;5.90;3.00;;;;;;;15.56;95.21;100686.06;5010327;28;20203;-79
2023/05/31 05:21:16;;;;;;;4.17;2.30;;;;;;;15.54;94.93;100687.94;5011336;28;20249;-79
2023/05/31 05:23:42;;;;;;;5.90;3.03;;;;;;;15.56;95.76;100693.00;5007622;28;20186;-78
2023/05/31 05:26:07;;;;;;;11.77;3.30;;;;;;;15.51;96.00;100690.72;5010501;28;20195;-78
2023/05/31 05:28:33;;;;;;;7.23;3.47;;;;;;;15.61;95.12;100688.34;5010781;28;20170;-78
2023/05/31 05:30:58;;;;;;;7.10;2.70;;;;;;;15.72;94.76;100685.06;5003874;28;20225;-77
2023/05/31 05:33:23;;;;;;;14.43;2.97;;;;;;;15.77;94.54;100688.97;5020097;28;20187;-76
2023/05/31 05:35:48;;;;;;;10.97;3.07;;;;;;;15.78;94.23;100692.41;5011964;28;20189;-77
2023/05/31 05:38:14;;;;;;;8.80;3.23;;;;;;;15.91;92.81;100688.06;5010999;28;20224;-76
2023/05/31 05:40:39;;;;;;;12.60;2.90;;;;;;;15.94;93.58;100695.66;5006751;28;20225;-76
2023/05/31 05:43:05;;;;;;;11.33;2.63;;;;;;;16.02;92.37;100699.50;5022494;28;20229;-77
2023/05/31 05:45:30;;;;;;;7.67;2.80;;;;;;;16.15;93.30;100697.75;5011425;28;20552;-76
2023/05/31 05:47:55;;;;;;;6.63;2.77;;;;;;;16.23;91.28;100700.63;5011882;28;20265;-76
2023/05/31 05:50:21;;;;;;;5.40;2.70;;;;;;;16.19;90.61;100709.56;5004319;28;20174;-76
2023/05/31 05:52:47;;;;;;;6.23;3.10;;;;;;;16.34;91.20;100704.25;5010585;28;20273;-77
2023/05/31 05:55:12;;;;;;;10.00;3.30;;;;;;;16.41;90.19;100702.88;5011544;28;20178;-76
2023/05/31 05:57:37;;;;;;;8.30;3.03;;;;;;;16.60;88.47;100708.44;5011630;28;20198;-76
2023/05/31 06:00:10;;;;;;;10.53;3.33;;;;;;;16.82;87.63;100712.16;5007946;28;20213;-76
2023/05/31 06:02:36;;;;;;;6.33;2.90;;;;;;;16.88;82.39;100711.69;5010091;28;20313;-77
2023/05/31 06:05:02;;;;;;;8.47;3.03;;;;;;;16.92;80.22;100704.56;5011059;28;20190;-75
2023/05/31 06:07:27;;;;;;;7.33;2.70;;;;;;;17.02;79.13;100702.94;5011340;28;20195;-75
2023/05/31 06:09:53;;;;;;;7.10;2.97;;;;;;;17.26;77.07;100709.91;5011553;28;20265;-76
2023/05/31 06:12:18;;;;;;;6.10;2.60;;;;;;;17.73;73.31;100715.94;5016423;28;20567;-76
2023/05/31 06:14:43;;;;;;;6.50;2.90;;;;;;;17.97;71.39;100711.63;5011527;28;20179;-76
2023/05/31 06:17:09;;;;;;;7.13;2.93;;;;;;;18.26;66.19;100713.78;5009644;28;20190;-77
2023/05/31 06:19:35;;;;;;;5.73;2.60;;;;;;;18.71;63.92;100703.31;5010421;28;20198;-76
2023/05/31 06:22:00;;;;;;;8.93;2.83;;;;;;;19.19;61.64;100707.34;5002813;28;20506;-78
2023/05/31 06:24:25;;;;;;;12.07;3.67;;;;;;;19.92;55.54;100714.44;5012357;28;20185;-77
2023/05/31 06:26:51;;;;;;;5.07;2.83;;;;;;;20.68;54.28;100716.63;5011083;28;20627;-78
2023/05/31 06:29:16;;;;;;;9.17;3.80;;;;;;;21.27;50.79;100717.56;5011452;28;20194;-77
2023/05/31 06:31:42;;;;;;;10.33;2.90;;;;;;;22.52;46.14;100715.69;5013879;28;20267;-78
2023/05/31 06:34:07;;;;;;;12.10;2.90;;;;;;;22.15;45.28;100728.81;5010698;28;20193;-68
2023/05/31 06:36:33;;;;;;;5.97;2.97;;;;;;;21.62;47.23;100724.97;5010628;28;20183;-67
2023/05/31 06:38:58;;;;;;;4.80;2.93;;;;;;;21.36;46.92;100721.13;5007457;28;20211;-67
2023/05/31 06:41:26;;;;;;;7.87;2.70;;;;;;;22.17;45.41;100727.69;5008222;28;20233;-66
2023/05/31 06:43:51;;;;;;;6.50;2.63;;;;;;;22.51;44.20;100724.56;5009237;28;20189;-68
2023/05/31 06:46:16;;;;;;;5.73;3.13;;;;;;;23.01;42.70;100725.06;5009426;28;20186;-69
2023/05/31 06:48:41;;;;;;;3.73;2.50;;;;;;;22.81;42.39;100719.94;5011236;28;20704;-68
2023/05/31 06:51:07;;;;;;;5.83;2.40;;;;;;;22.94;42.66;100716.13;5012775;28;20233;-68
2023/05/31 06:53:32;;;;;;;4.45;2.60;;;;;;;23.51;40.91;100708.75;5014625;28;20244;-68
2023/05/31 06:55:58;;;;;;;6.65;2.72;;;;;;;23.04;41.46;100730.81;5013960;28;20191;-71
2023/05/31 06:58:23;;;;;;;6.57;2.80;;;;;;;23.30;40.01;100724.00;5014226;28;20213;-74
2023/05/31 07:00:49;;;;;;;8.27;3.13;;;;;;;23.11;39.42;100730.19;4991204;28;20326;-66
2023/05/31 07:03:14;;;;;;;7.97;3.30;;;;;;;22.79;40.71;100726.31;5013754;28;20190;-68
2023/05/31 07:05:43;;;;;;;4.07;2.35;;;;;;;22.43;41.63;100734.13;5013973;28;20214;-66
2023/05/31 07:08:09;;;;;;;7.13;3.03;;;;;;;22.41;41.36;100734.25;5012921;28;20233;-68
2023/05/31 07:10:34;;;;;;;4.50;2.13;;;;;;;23.05;40.87;100732.44;5006198;28;20513;-67
2023/05/31 07:13:00;;;;;;;5.73;2.53;;;;;;;22.84;40.03;100719.63;5005509;28;20223;-67
2023/05/31 07:15:27;;;;;;;10.70;2.87;;;;;;;23.52;40.39;100714.81;5001060;28;20577;-67
2023/05/31 07:17:52;;;;;;;5.97;2.50;;;;;;;23.26;40.29;100718.25;5020804;28;20682;-71
2023/05/31 07:20:18;;;;;;;4.38;2.50;;;;;;;23.20;41.50;100713.59;5001123;28;20237;-67
2023/05/31 07:22:43;;;;;;;8.07;2.83;;;;;;;23.30;40.00;100705.63;5011562;28;20183;-69
2023/05/31 07:25:08;;;;;;;7.63;2.72;;;;;;;23.65;40.32;100707.38;5012939;28;20179;-67
2023/05/31 07:27:34;;;;;;;4.32;2.40;;;;;;;24.21;38.24;100714.06;5013726;28;20189;-70
2023/05/31 07:29:59;;;;;;;11.88;2.53;;;;;;;24.04;37.61;100708.75;5012793;28;20222;-68
2023/05/31 07:32:24;;;;;;;4.68;2.58;;;;;;;23.90;36.65;100704.03;4980215;28;20222;-65
2023/05/31 07:34:50;;;;;;;6.95;2.55;;;;;;;23.79;37.05;100699.88;5002115;28;20663;-65
2023/05/31 07:37:15;;;;;;;5.65;2.63;;;;;;;23.63;37.19;100704.06;5007539;28;20179;-66
2023/05/31 07:39:40;;;;;;;6.22;2.17;;;;;;;23.12;37.91;100708.25;5013679;28;20678;-67
2023/05/31 07:42:06;;;;;;;5.68;2.42;;;;;;;22.86;38.47;100709.00;5015537;28;20716;-67
2023/05/31 07:44:31;;;;;;;9.50;2.13;;;;;;;23.61;37.85;100692.88;5002249;28;20283;-67
2023/05/31 07:46:56;;;;;;;5.40;2.42;;;;;;;23.71;37.29;100692.78;5013212;28;20187;-64
2023/05/31 07:49:22;;;;;;;7.97;2.42;;;;;;;24.06;36.52;100690.19;5013354;28;20194;-66
2023/05/31 07:51:47;;;;;;;7.28;2.25;;;;;;;25.05;35.29;100700.97;5013272;28;20313;-68
2023/05/31 07:54:12;;;;;;;4.55;2.40;;;;;;;24.85;35.30;100696.03;5014863;28;20198;-68
2023/05/31 07:56:38;;;;;;;13.95;2.78;;;;;;;24.31;35.60;100702.47;5009726;28;20580;-69
2023/05/31 07:59:03;;;;;;;3.53;2.55;;;;;;;23.61;36.79;100692.06;5011524;28;20198;-66
2023/05/31 08:01:28;;;;;;;3.55;2.22;;;;;;;23.85;37.04;100672.97;5013262;28;20218;-73
2023/05/31 08:03:54;;;;;;;5.93;2.13;;;;;;;24.32;36.82;100677.81;5017533;28;20665;-73
2023/05/31 08:06:20;;;;;;;6.25;2.28;;;;;;;24.16;36.49;100689.09;5011534;28;20600;-61
2023/05/31 08:08:45;;;;;;;11.43;2.75;;;;;;;24.22;36.38;100681.56;5012033;28;20179;-63
2023/05/31 08:11:11;;;;;;;5.45;2.65;;;;;;;24.83;35.52;100689.28;5011458;28;20245;-65
2023/05/31 08:13:36;;;;;;;3.70;2.30;;;;;;;24.14;35.26;100677.91;5019445;28;20590;-62
2023/05/31 08:16:01;;;;;;;5.43;2.40;;;;;;;24.30;35.29;100689.47;5001495;28;20774;-63
2023/05/31 08:18:27;;;;;;;7.72;2.28;;;;;;;24.27;35.27;100682.72;5013319;28;20214;-62
2023/05/31 08:20:52;;;;;;;6.32;2.33;;;;;;;25.44;33.94;100676.59;5006394;28;20229;-64
2023/05/31 08:23:19;;;;;;;4.03;2.58;;;;;;;24.63;34.22;100677.22;5022284;28;20549;-60
2023/05/31 08:25:44;;;;;;;7.47;2.40;;;;;;;25.10;34.60;100683.69;5011423;28;20273;-59
2023/05/31 08:28:09;;;;;;;5.05;2.53;;;;;;;26.12;32.63;100679.72;5012958;28;20286;-61
2023/05/31 08:30:34;;;;;;;4.47;2.53;;;;;;;27.58;30.75;100679.03;5007111;28;20242;-60
2023/05/31 08:33:01;;;;;;;6.82;2.53;;;;;;;26.81;31.23;100683.50;5024480;28;20190;-59
2023/05/31 08:35:26;;;;;;;5.50;2.85;;;;;;;26.39;31.38;100685.53;5011079;28;20722;-59
2023/05/31 08:37:52;;;;;;;5.38;2.42;;;;;;;26.93;30.84;100679.44;5011378;28;20281;-62
2023/05/31 08:40:17;;;;;;;6.68;2.45;;;;;;;27.73;29.43;100681.66;5017508;28;20216;-59
2023/05/31 08:42:58;;;;;;;6.43;2.45;;;;;;;28.11;28.99;100690.31;5011504;28;20240;-59
2023/05/31 08:45:28;;;;;;;5.18;2.38;;;;;;;28.27;28.50;100676.06;5010936;28;20183;-60
2023/05/31 08:47:59;;;;;;;4.18;1.98;;;;;;;28.33;28.24;100682.41;5011184;28;20214;-60
2023/05/31 08:50:26;;;;;;;7.70;2.50;;;;;;;27.76;29.11;100690.06;5004161;28;20640;-60
2023/05/31 08:52:52;;;;;;;6.88;2.22;;;;;;;27.46;29.69;100683.94;5011244;28;20218;-60
2023/05/31 08:55:18;;;;;;;6.72;2.40;;;;;;;26.90;29.99;100683.25;5012181;28;20198;-62
2023/05/31 08:57:45;;;;;;;3.60;2.47;;;;;;;26.80;29.64;100680.00;5012581;28;20260;-59
2023/05/31 09:00:10;;;;;;;8.30;2.47;;;;;;;27.17;30.02;100672.28;5001688;28;20185;-58
2023/05/31 09:02:38;;;;;;;4.97;2.17;;;;;;;27.65;28.92;100675.47;5010983;28;20191;-58
2023/05/31 09:05:04;;;;;;;5.57;2.78;;;;;;;26.69;29.72;100686.50;5011704;28;20187;-59
2023/05/31 09:07:30;;;;;;;5.40;2.15;;;;;;;26.32;30.63;100681.94;5010854;28;20671;-59
2023/05/31 09:09:55;;;;;;;4.57;2.33;;;;;;;26.15;31.05;100684.66;5012227;28;20266;-57
2023/05/31 09:12:21;;;;;;;2.90;2.13;;;;;;;26.93;30.40;100679.44;5016696;28;20234;-57
2023/05/31 09:14:46;;;;;;;6.65;2.33;;;;;;;27.04;30.10;100678.16;5012281;28;20183;-57
2023/05/31 09:17:13;;;;;;;7.88;2.80;;;;;;;27.78;29.59;100674.81;5011814;28;20194;-58
2023/05/31 09:19:50;;;;;;;4.85;2.13;;;;;;;26.84;29.65;100673.41;5010451;28;20360;-59
2023/05/31 09:22:15;;;;;;;3.25;1.85;;;;;;;27.75;29.47;100679.66;5001490;28;20300;-57
2023/05/31 09:24:49;;;;;;;4.43;2.55;;;;;;;27.10;29.80;100661.63;5012187;28;20215;-58
2023/05/31 09:27:14;;;;;;;4.70;2.33;;;;;;;27.39;29.24;100665.31;5010290;28;20574;-58
2023/05/31 09:29:42;;;;;;;8.57;2.17;;;;;;;27.85;28.73;100659.88;5009886;28;20190;-59
2023/05/31 09:32:09;;;;;;;4.43;2.17;;;;;;;28.42;28.51;100662.78;5002403;28;20249;-59
2023/05/31 09:34:35;;;;;;;6.20;2.33;;;;;;;29.03;27.71;100658.06;5010492;28;20182;-59
2023/05/31 09:37:01;;;;;;;5.82;2.65;;;;;;;28.43;27.70;100653.84;5011389;28;20209;-58
2023/05/31 09:39:27;;;;;;;6.45;2.65;;;;;;;28.50;27.42;100653.91;5010585;28;20672;-59
2023/05/31 09:41:52;;;;;;;5.47;2.15;;;;;;;27.02;29.35;100651.16;5003132;28;20222;-60
2023/05/31 09:44:18;;;;;;;7.40;2.42;;;;;;;26.90;29.40;100658.66;5013048;28;20594;-58
2023/05/31 09:46:46;;;;;;;5.65;2.83;;;;;;;27.60;29.23;100637.38;5010618;28;20183;-59
2023/05/31 09:49:11;;;;;;;10.57;2.70;;;;;;;28.58;27.90;100642.38;5007868;28;20269;-61
2023/05/31 09:51:37;;;;;;;4.13;2.55;;;;;;;28.99;27.99;100639.09;5010223;28;20316;-59
2023/05/31 09:54:10;;;;;;;6.63;2.88;;;;;;;28.38;28.13;100634.25;5014614;28;20195;-58
2023/05/31 09:56:40;;;;;;;6.82;2.40;;;;;;;28.30;28.01;100638.63;5009690;28;20187;-58
2023/05/31 09:59:06;;;;;;;3.85;2.20;;;;;;;28.12;27.85;100623.22;5011539;28;20677;-59
2023/05/31 10:01:32;;;;;;;3.33;2.15;;;;;;;28.48;28.10;100634.75;5013102;28;20230;-59
2023/05/31 10:03:59;;;;;;;3.58;2.13;;;;;;;27.78;27.80;100632.53;5009497;28;20706;-60
2023/05/31 10:06:25;;;;;;;3.78;1.73;;;;;;;28.77;27.09;100627.72;4997786;28;20187;-59
2023/05/31 10:08:50;;;;;;;5.25;2.38;;;;;;;29.76;26.16;100631.22;5026143;28;20609;-58
2023/05/31 10:11:26;;;;;;;5.55;2.28;;;;;;;28.54;25.84;100633.19;5010987;28;20222;-60
2023/05/31 10:13:59;;;;;;;5.03;2.30;;;;;;;29.04;26.10;100628.75;5015425;28;20193;-62
2023/05/31 10:16:28;;;;;;;4.70;2.53;;;;;;;28.48;26.61;100622.34;5004530;28;20293;-58
2023/05/31 10:19:01;;;;;;;5.68;2.10;;;;;;;28.96;26.50;100620.94;5009723;28;20626;-59
2023/05/31 10:21:28;;;;;;;5.22;2.00;;;;;;;28.56;26.39;100623.22;5012278;28;20233;-59
2023/05/31 10:24:07;;;;;;;3.70;1.77;;;;;;;28.44;25.86;100631.69;5009916;28;20232;-58
2023/05/31 10:26:47;;;;;;;6.38;1.92;;;;;;;28.91;25.10;100628.63;5008425;28;20488;-59
2023/05/31 10:29:25;;;;;;;6.15;2.15;;;;;;;29.00;25.03;100619.56;5009500;28;20532;-58
2023/05/31 10:31:54;;;;;;;5.35;1.92;;;;;;;28.82;24.61;100618.16;5007849;28;20655;-57
2023/05/31 10:34:24;;;;;;;4.32;2.10;;;;;;;29.37;24.95;100622.84;5003751;28;20175;-59
2023/05/31 10:36:54;;;;;;;4.35;1.83;;;;;;;28.44;25.40;100626.38;5013199;28;20171;-58
2023/05/31 10:39:24;;;;;;;3.42;2.30;;;;;;;27.24;26.88;100615.13;5014649;28;20288;-59
2023/05/31 10:41:57;;;;;;;3.42;1.95;;;;;;;27.21;27.12;100605.75;5018688;28;20226;-58
2023/05/31 10:44:33;;;;;;;7.63;1.80;;;;;;;25.35;29.65;100609.94;5006611;28;20199;-58
2023/05/31 10:47:02;;;;;;;4.63;1.70;;;;;;;24.29;30.85;100593.19;5013051;28;20182;-58
2023/05/31 10:49:32;;;;;;;3.00;1.65;;;;;;;23.65;32.11;100588.34;5011682;28;20725;-58
2023/05/31 10:52:04;;;;;;;2.50;2.03;;;;;;;23.54;31.84;100589.44;5010669;28;20226;-58
2023/05/31 10:54:32;;;;;;;5.88;2.00;;;;;;;23.49;32.42;100579.44;5014453;28;20590;-57
2023/05/31 10:56:58;;;;;;;3.55;1.60;;;;;;;23.26;33.20;100580.94;5012987;28;20179;-56
2023/05/31 10:59:26;;;;;;;3.97;1.83;;;;;;;23.09;32.97;100580.81;5012954;28;20214;-57
2023/05/31 11:01:52;;;;;;;4.13;1.90;;;;;;;23.03;32.55;100578.78;4991282;28;20221;-59
2023/05/31 11:04:24;;;;;;;3.90;2.10;;;;;;;23.11;32.36;100570.16;5012901;28;20269;-57
2023/05/31 11:07:21;;;;;;;4.23;2.10;;;;;;;23.36;33.37;100566.72;5013911;28;20195;-55
2023/05/31 11:09:56;;;;;;;3.20;2.10;;;;;;;23.54;33.17;100576.31;5014278;28;20234;-56
2023/05/31 11:12:36;;;;;;;5.97;2.00;;;;;;;23.30;32.67;100559.47;5015419;28;20240;-55
2023/05/31 11:15:03;;;;;;;3.20;2.20;;;;;;;23.24;32.10;100565.34;5012502;28;20660;-55
2023/05/31 11:17:38;;;;;;;3.07;1.87;;;;;;;23.23;33.03;100565.50;5003006;28;20225;-56
2023/05/31 11:20:05;;;;;;;3.10;2.00;;;;;;;23.16;32.88;100555.63;5005762;28;20212;-55